Time;durP1;ratioP1;P1;durP2;ratioP2;P2;SDS_P1;SDS_P2;PMS_P1;PMS_P2;Temp;Humidity;BMP_temperature;BMP_pressure;BME280_temperature;BME280_humidity;BME280_pressure;Samples;Min_cycle;Max_cycle;Signal;HPM_P1;HPM_P2
2023/11/06 00:00:11;;;;;;;2.93;0.40;;;;;;;11.57;100.00;97898.75;6141332;23;20169;-80
2023/11/06 00:02:42;;;;;;;0.50;0.27;;;;;;;11.49;100.00;97905.47;6140528;23;20169;-80
2023/11/06 00:05:16;;;;;;;1.17;0.40;;;;;;;11.55;100.00;97910.84;6116342;23;20234;-80
2023/11/06 00:07:50;;;;;;;0.97;0.23;;;;;;;11.42;100.00;97909.50;6141415;23;20224;-80
2023/11/06 00:10:20;;;;;;;1.47;0.40;;;;;;;11.50;100.00;97914.31;6139952;23;20204;-80
2023/11/06 00:12:50;;;;;;;0.30;0.30;;;;;;;11.49;100.00;97918.88;6091899;23;20167;-80
2023/11/06 00:15:23;;;;;;;0.93;0.40;;;;;;;11.40;100.00;97933.88;6140791;23;20182;-80
2023/11/06 00:17:57;;;;;;;0.63;0.20;;;;;;;11.24;100.00;97939.50;6141334;23;20163;-79
2023/11/06 00:20:38;;;;;;;1.33;0.30;;;;;;;11.21;100.00;97935.44;6117654;23;20165;-80
2023/11/06 00:23:12;;;;;;;0.73;0.47;;;;;;;11.37;100.00;97938.97;6140613;23;20149;-80
2023/11/06 00:25:46;;;;;;;0.60;0.30;;;;;;;11.43;100.00;97960.16;6115727;23;20203;-79
2023/11/06 00:28:17;;;;;;;0.93;0.30;;;;;;;11.58;100.00;97950.53;6139684;23;20165;-80
2023/11/06 00:30:46;;;;;;;0.67;0.40;;;;;;;11.47;100.00;97973.88;6138863;23;20170;-80
2023/11/06 00:33:14;;;;;;;0.87;0.37;;;;;;;11.41;100.00;97974.91;6139224;23;20211;-80
2023/11/06 00:35:50;;;;;;;0.47;0.40;;;;;;;11.53;100.00;97983.50;6114086;23;20218;-80
2023/11/06 00:38:20;;;;;;;1.50;0.40;;;;;;;11.54;100.00;97962.88;6089547;23;20169;-80
2023/11/06 00:40:50;;;;;;;1.20;0.30;;;;;;;11.71;100.00;97969.59;6108355;23;20256;-80
2023/11/06 00:43:18;;;;;;;0.70;0.37;;;;;;;11.84;100.00;97974.50;6084836;23;20198;-80
2023/11/06 00:45:46;;;;;;;1.50;0.30;;;;;;;11.83;100.00;97969.38;6107047;23;20239;-79
2023/11/06 00:48:18;;;;;;;1.40;0.30;;;;;;;11.74;100.00;97982.53;6110685;23;20212;-81
2023/11/06 00:50:48;;;;;;;0.73;0.33;;;;;;;11.80;100.00;97977.97;6111765;23;20255;-80
2023/11/06 00:53:30;;;;;;;1.20;0.40;;;;;;;11.55;100.00;97981.38;6112576;23;20227;-80
2023/11/06 00:56:00;;;;;;;1.60;0.50;;;;;;;11.39;100.00;97991.25;6088781;23;20192;-80
2023/11/06 00:58:31;;;;;;;0.87;0.30;;;;;;;11.45;100.00;97992.91;6087875;23;20177;-80
2023/11/06 01:01:03;;;;;;;1.17;0.53;;;;;;;11.38;100.00;97994.22;6088842;23;20181;-80
2023/11/06 01:03:41;;;;;;;0.90;0.40;;;;;;;11.38;100.00;98007.63;6112694;23;20152;-80
2023/11/06 01:06:12;;;;;;;1.03;0.30;;;;;;;11.26;100.00;98012.41;6112232;23;20160;-79
2023/11/06 01:08:48;;;;;;;0.87;0.50;;;;;;;11.46;100.00;98023.19;6066859;23;20149;-80
2023/11/06 01:11:19;;;;;;;2.00;0.30;;;;;;;11.35;100.00;98025.03;6113124;23;20157;-79
2023/11/06 01:13:52;;;;;;;1.13;0.40;;;;;;;11.19;100.00;98034.09;6112353;23;20264;-79
2023/11/06 01:16:25;;;;;;;1.90;0.30;;;;;;;11.17;100.00;98030.88;6113058;23;20228;-79
2023/11/06 01:18:54;;;;;;;1.77;0.40;;;;;;;11.14;100.00;98044.81;6110828;23;20259;-80
2023/11/06 01:21:31;;;;;;;0.43;0.30;;;;;;;11.06;100.00;98039.91;6112287;23;20164;-80
2023/11/06 01:24:04;;;;;;;0.90;0.47;;;;;;;11.26;100.00;98044.56;6113548;23;20174;-79
2023/11/06 01:26:42;;;;;;;0.93;0.50;;;;;;;11.17;100.00;98044.28;6113437;23;20175;-80
2023/11/06 01:29:13;;;;;;;0.70;0.30;;;;;;;11.27;100.00;98048.88;6115540;23;20189;-79
2023/11/06 01:36:25;;;;;;;1.07;0.47;;;;;;;11.09;100.00;98058.19;6024482;23;20171;-79
2023/11/06 01:39:00;;;;;;;0.73;0.40;;;;;;;11.12;100.00;98062.19;6025465;23;20164;-79
2023/11/06 01:41:29;;;;;;;1.50;0.40;;;;;;;10.99;100.00;98064.28;6001914;23;20207;-80
2023/11/06 01:44:10;;;;;;;0.93;0.40;;;;;;;10.93;100.00;98067.19;6025175;23;20151;-80
2023/11/06 01:46:45;;;;;;;1.30;0.40;;;;;;;11.08;100.00;98074.50;6025382;23;20171;-80
2023/11/06 01:49:17;;;;;;;1.03;0.40;;;;;;;11.18;100.00;98061.16;6025379;23;20232;-80
2023/11/06 01:51:56;;;;;;;1.90;0.53;;;;;;;11.10;100.00;98072.38;6024834;23;20200;-79
2023/11/06 01:54:29;;;;;;;1.00;0.50;;;;;;;11.00;100.00;98073.94;6001666;23;20190;-80
2023/11/06 01:57:00;;;;;;;1.67;0.50;;;;;;;10.94;100.00;98080.34;6025147;23;20227;-80
2023/11/06 01:59:29;;;;;;;1.57;0.40;;;;;;;10.83;100.00;98083.19;6003528;23;20179;-80
2023/11/06 02:02:05;;;;;;;2.97;0.50;;;;;;;10.94;100.00;98090.25;6049937;23;20168;-80
2023/11/06 02:04:47;;;;;;;1.90;0.50;;;;;;;11.06;100.00;98103.47;6118152;23;20244;-80
2023/11/06 02:07:17;;;;;;;1.97;0.50;;;;;;;10.95;100.00;98097.22;6120956;23;20173;-81
2023/11/06 02:09:54;;;;;;;1.60;0.50;;;;;;;10.81;100.00;98107.59;6144847;23;20195;-80
2023/11/06 02:12:25;;;;;;;0.80;0.50;;;;;;;10.83;100.00;98104.63;6144471;23;20176;-80
2023/11/06 02:14:57;;;;;;;1.00;0.50;;;;;;;10.69;100.00;98111.50;6119629;23;20232;-80
2023/11/06 02:17:29;;;;;;;1.27;0.50;;;;;;;10.65;100.00;98115.75;6143687;23;20156;-80
2023/11/06 02:20:08;;;;;;;1.17;0.60;;;;;;;10.77;100.00;98119.88;6128224;23;20218;-80
2023/11/06 02:22:43;;;;;;;1.37;0.50;;;;;;;10.68;100.00;98134.81;6094500;23;20157;-80
2023/11/06 02:25:13;;;;;;;1.60;0.43;;;;;;;10.63;100.00;98128.63;6118137;23;20164;-80
2023/11/06 02:27:50;;;;;;;0.77;0.40;;;;;;;10.71;100.00;98128.94;6143902;23;20156;-80
2023/11/06 02:30:31;;;;;;;1.30;0.43;;;;;;;10.71;100.00;98131.63;6096472;23;20157;-81
2023/11/06 02:33:14;;;;;;;1.00;0.50;;;;;;;10.77;100.00;98143.19;6117764;23;20176;-80
2023/11/06 02:35:50;;;;;;;1.73;0.40;;;;;;;10.68;100.00;98137.50;6096873;23;20228;-80
2023/11/06 02:38:21;;;;;;;0.97;0.40;;;;;;;10.71;100.00;98146.88;6119965;23;20157;-80
2023/11/06 02:40:54;;;;;;;2.40;0.50;;;;;;;10.70;100.00;98142.59;6096774;23;20223;-80
2023/11/06 02:43:27;;;;;;;1.50;0.40;;;;;;;10.85;100.00;98151.56;6094259;23;20217;-80
2023/11/06 02:46:10;;;;;;;1.80;0.60;;;;;;;10.77;100.00;98164.63;6120139;23;20171;-81
2023/11/06 02:49:29;;;;;;;0.70;0.30;;;;;;;10.76;100.00;98158.44;6082921;23;20176;-80
2023/11/06 02:52:00;;;;;;;1.87;0.53;;;;;;;10.93;100.00;98180.53;6058806;23;20230;-80
2023/11/06 02:54:38;;;;;;;4.13;0.60;;;;;;;10.92;100.00;98178.91;6037384;23;20237;-80
2023/11/06 02:57:14;;;;;;;1.00;0.40;;;;;;;11.03;100.00;98187.84;6082191;23;20150;-81
2023/11/06 02:59:45;;;;;;;1.10;0.50;;;;;;;11.01;100.00;98200.72;6083090;23;20170;-80
2023/11/06 03:02:16;;;;;;;0.80;0.40;;;;;;;11.03;100.00;98204.75;6059756;23;20173;-80
2023/11/06 03:04:51;;;;;;;1.53;0.40;;;;;;;11.07;100.00;98212.25;6059636;23;20169;-80
2023/11/06 03:07:23;;;;;;;1.40;0.50;;;;;;;10.98;100.00;98217.28;6083059;23;20173;-80
2023/11/06 03:09:55;;;;;;;2.37;0.50;;;;;;;10.95;100.00;98226.66;6083517;23;20178;-81
2023/11/06 03:12:32;;;;;;;2.50;0.60;;;;;;;10.99;100.00;98235.00;6061084;23;20178;-80
2023/11/06 03:15:12;;;;;;;1.43;0.40;;;;;;;11.07;100.00;98245.22;6083267;23;20238;-80
2023/11/06 03:17:48;;;;;;;2.00;0.50;;;;;;;11.00;100.00;98242.78;6056243;23;20181;-80
2023/11/06 03:20:23;;;;;;;1.37;0.57;;;;;;;11.07;100.00;98252.47;6057291;23;20170;-80
2023/11/06 03:23:20;;;;;;;1.07;0.40;;;;;;;10.94;100.00;98251.84;6035843;23;20169;-80
2023/11/06 03:25:53;;;;;;;0.60;0.50;;;;;;;10.93;100.00;98250.22;6106177;23;20167;-80
2023/11/06 03:28:38;;;;;;;2.27;0.57;;;;;;;10.82;100.00;98261.09;6144662;23;20665;-79
2023/11/06 03:31:16;;;;;;;0.67;0.50;;;;;;;10.74;100.00;98275.75;6144134;23;20239;-80
2023/11/06 03:33:46;;;;;;;1.70;0.50;;;;;;;10.64;100.00;98266.84;6119546;23;20168;-80
2023/11/06 03:36:24;;;;;;;0.50;0.40;;;;;;;10.63;100.00;98265.22;6097037;23;20188;-80
2023/11/06 03:39:02;;;;;;;2.47;0.80;;;;;;;10.41;100.00;98273.25;6120518;23;20162;-80
2023/11/06 03:41:46;;;;;;;0.73;0.40;;;;;;;10.28;100.00;98279.81;6118552;23;20173;-80
2023/11/06 03:44:15;;;;;;;0.97;0.30;;;;;;;10.15;100.00;98282.84;6142490;23;20156;-80
2023/11/06 03:46:50;;;;;;;2.43;0.83;;;;;;;10.03;100.00;98295.53;6144552;23;20184;-80
2023/11/06 03:49:21;;;;;;;1.20;0.37;;;;;;;9.98;100.00;98296.28;6142534;23;20619;-80
2023/11/06 03:51:50;;;;;;;0.90;0.30;;;;;;;9.93;100.00;98300.75;6144672;23;20228;-80
2023/11/06 03:54:29;;;;;;;1.30;0.50;;;;;;;9.81;100.00;98306.19;6144517;23;20167;-79
2023/11/06 03:57:08;;;;;;;1.80;0.30;;;;;;;9.80;100.00;98299.22;6144413;23;20168;-80
2023/11/06 03:59:40;;;;;;;2.03;0.70;;;;;;;9.63;100.00;98296.59;6118079;23;20171;-80
2023/11/06 04:02:09;;;;;;;1.10;0.50;;;;;;;9.56;100.00;98311.19;6118839;23;20172;-80
2023/11/06 04:04:37;;;;;;;1.90;0.40;;;;;;;9.46;100.00;98301.16;6143517;23;20168;-80
2023/11/06 04:07:10;;;;;;;1.47;0.50;;;;;;;9.32;100.00;98307.91;6094286;23;20223;-80
2023/11/06 04:09:47;;;;;;;1.60;0.50;;;;;;;9.11;100.00;98317.44;6116973;23;20161;-80
2023/11/06 04:12:21;;;;;;;2.10;0.57;;;;;;;9.00;100.00;98317.50;6115740;23;20172;-80
2023/11/06 04:14:53;;;;;;;2.00;0.60;;;;;;;8.81;100.00;98322.25;6141614;23;20152;-80
2023/11/06 04:17:30;;;;;;;2.60;0.50;;;;;;;8.69;100.00;98324.97;6115044;23;20198;-80
2023/11/06 04:20:10;;;;;;;1.80;0.70;;;;;;;8.57;100.00;98332.22;6140716;23;20162;-80
2023/11/06 04:22:52;;;;;;;1.90;0.57;;;;;;;8.50;100.00;98330.72;6140154;23;20219;-80
2023/11/06 04:25:23;;;;;;;0.63;0.50;;;;;;;8.35;100.00;98337.38;6117039;23;20156;-80
2023/11/06 04:27:53;;;;;;;1.10;0.60;;;;;;;8.22;100.00;98339.47;6116104;23;20247;-80
2023/11/06 04:30:31;;;;;;;1.43;0.67;;;;;;;8.09;100.00;98337.88;6093879;23;20223;-80
2023/11/06 04:33:04;;;;;;;1.93;0.77;;;;;;;7.92;100.00;98340.47;6114865;23;20176;-80
2023/11/06 04:35:34;;;;;;;1.53;0.50;;;;;;;7.78;100.00;98349.75;6115711;23;20187;-80
2023/11/06 04:38:07;;;;;;;3.23;0.63;;;;;;;7.63;100.00;98349.41;6115877;23;20226;-80
2023/11/06 04:40:41;;;;;;;1.10;0.70;;;;;;;7.61;100.00;98362.13;6109071;23;20211;-80
2023/11/06 04:43:14;;;;;;;1.30;0.70;;;;;;;7.45;100.00;98370.81;6109224;23;20162;-80
2023/11/06 04:45:49;;;;;;;1.47;0.60;;;;;;;7.18;100.00;98366.94;6111182;23;20164;-80
2023/11/06 04:48:24;;;;;;;1.60;0.60;;;;;;;7.02;100.00;98377.22;6112073;23;20148;-80
2023/11/06 04:50:54;;;;;;;1.87;0.80;;;;;;;6.95;100.00;98381.78;6114447;23;20607;-80
2023/11/06 04:53:25;;;;;;;1.27;0.80;;;;;;;6.89;100.00;98380.06;6088744;23;20164;-80
2023/11/06 04:55:54;;;;;;;1.30;0.83;;;;;;;6.80;100.00;98386.75;6111363;23;20185;-80
2023/11/06 04:58:27;;;;;;;0.93;0.83;;;;;;;6.74;100.00;98387.63;6110432;23;20199;-80
2023/11/06 05:01:06;;;;;;;2.00;0.80;;;;;;;6.47;100.00;98395.13;6113353;23;20623;-80
2023/11/06 05:04:00;;;;;;;1.37;0.80;;;;;;;6.36;100.00;98390.56;6111490;23;20163;-80
2023/11/06 05:06:37;;;;;;;1.60;0.80;;;;;;;6.31;100.00;98398.38;6088955;23;20168;-80
2023/11/06 05:09:05;;;;;;;2.13;1.10;;;;;;;6.23;100.00;98412.00;6111912;23;20172;-80
2023/11/06 05:11:37;;;;;;;2.43;1.00;;;;;;;6.19;100.00;98408.16;6088239;23;20607;-80
2023/11/06 05:14:11;;;;;;;2.87;1.07;;;;;;;6.18;100.00;98412.66;6111118;23;20155;-80
2023/11/06 05:16:40;;;;;;;1.27;1.03;;;;;;;6.13;100.00;98411.69;6111833;23;20196;-80
2023/11/06 05:19:12;;;;;;;1.47;1.00;;;;;;;6.05;100.00;98420.78;6087975;23;20168;-80
2023/11/06 05:21:47;;;;;;;2.07;0.87;;;;;;;5.94;100.00;98421.47;6093367;23;20164;-79
2023/11/06 05:24:20;;;;;;;1.90;0.97;;;;;;;5.88;100.00;98426.88;6110390;23;20168;-80
2023/11/06 05:26:53;;;;;;;3.10;1.00;;;;;;;5.82;100.00;98427.72;6109093;23;20168;-80
2023/11/06 05:29:25;;;;;;;2.37;0.80;;;;;;;5.78;100.00;98435.31;6119120;23;20208;-81
2023/11/06 05:31:55;;;;;;;2.23;1.07;;;;;;;5.73;100.00;98433.31;6094672;23;20175;-81
2023/11/06 05:34:27;;;;;;;2.10;0.90;;;;;;;5.71;100.00;98440.66;6116319;23;20241;-80
2023/11/06 05:37:04;;;;;;;2.47;0.93;;;;;;;5.69;100.00;98442.72;6113983;23;20200;-80
2023/11/06 05:39:36;;;;;;;3.37;1.03;;;;;;;5.66;100.00;98443.16;6115963;23;20159;-80
2023/11/06 05:42:08;;;;;;;1.87;0.90;;;;;;;5.55;100.00;98446.50;6141462;23;20172;-80
2023/11/06 05:44:39;;;;;;;1.57;0.70;;;;;;;5.51;100.00;98437.34;6141757;23;20184;-80
2023/11/06 05:47:09;;;;;;;2.67;1.00;;;;;;;5.49;100.00;98443.91;6115646;23;20184;-80
2023/11/06 05:49:42;;;;;;;2.50;0.80;;;;;;;5.47;100.00;98446.78;6117575;23;20167;-80
2023/11/06 05:52:21;;;;;;;1.40;0.70;;;;;;;5.48;100.00;98448.41;6117163;23;20187;-80
2023/11/06 05:54:52;;;;;;;2.53;1.10;;;;;;;5.47;100.00;98444.13;6141680;23;20215;-79
2023/11/06 05:57:20;;;;;;;1.20;0.90;;;;;;;5.47;100.00;98449.44;6141668;23;20187;-80
2023/11/06 05:59:49;;;;;;;4.20;0.90;;;;;;;5.47;100.00;98454.75;6116545;23;20171;-79
2023/11/06 06:02:19;;;;;;;1.50;0.90;;;;;;;5.48;100.00;98466.19;6116985;23;20172;-80
2023/11/06 06:04:49;;;;;;;1.90;1.20;;;;;;;5.49;100.00;98470.47;6117037;23;20167;-80
2023/11/06 06:07:17;;;;;;;2.60;0.80;;;;;;;5.46;100.00;98476.22;6116737;23;20171;-80
2023/11/06 06:09:51;;;;;;;1.40;1.00;;;;;;;5.48;100.00;98477.63;6143076;23;20146;-80
2023/11/06 06:12:27;;;;;;;2.00;0.83;;;;;;;5.50;100.00;98483.56;6143780;23;20170;-80
2023/11/06 06:14:57;;;;;;;2.53;1.00;;;;;;;5.51;100.00;98487.00;6144038;23;20140;-80
2023/11/06 06:17:37;;;;;;;1.70;1.10;;;;;;;5.48;100.00;98503.38;6143365;23;20159;-80
2023/11/06 06:20:12;;;;;;;5.97;2.00;;;;;;;5.50;100.00;98504.81;6119165;23;20167;-80
2023/11/06 06:22:51;;;;;;;3.83;2.50;;;;;;;5.56;100.00;98505.78;6122887;23;20200;-80
2023/11/06 06:25:23;;;;;;;2.43;1.90;;;;;;;5.63;100.00;98518.00;6145093;23;20515;-80
2023/11/06 06:27:55;;;;;;;2.70;2.07;;;;;;;5.68;100.00;98522.69;6096115;23;20167;-80
2023/11/06 06:30:28;;;;;;;4.47;3.50;;;;;;;5.77;100.00;98529.34;6120484;23;20233;-78
2023/11/06 06:33:01;;;;;;;3.87;3.57;;;;;;;5.85;100.00;98529.09;6092596;23;20247;-79
2023/11/06 06:35:30;;;;;;;2.47;2.00;;;;;;;5.97;100.00;98532.69;6116694;23;20187;-81
2023/11/06 06:37:59;;;;;;;2.13;1.43;;;;;;;6.10;100.00;98535.28;6091261;23;20168;-81
2023/11/06 06:40:32;;;;;;;2.40;1.70;;;;;;;6.22;100.00;98538.03;6091983;23;20223;-79
2023/11/06 06:43:01;;;;;;;2.10;1.47;;;;;;;6.30;100.00;98542.28;6116713;23;20172;-78
2023/11/06 06:45:34;;;;;;;1.57;1.37;;;;;;;6.41;100.00;98542.34;6115666;23;20171;-80
2023/11/06 06:48:09;;;;;;;3.73;1.10;;;;;;;6.53;100.00;98545.13;6118266;23;20159;-79
2023/11/06 06:50:40;;;;;;;1.10;0.83;;;;;;;6.63;100.00;98537.41;6143430;23;20178;-79
2023/11/06 06:53:12;;;;;;;2.63;1.13;;;;;;;6.72;100.00;98549.41;6094100;23;20160;-80
2023/11/06 06:55:45;;;;;;;2.67;1.10;;;;;;;6.85;100.00;98540.47;6115421;23;20197;-79
2023/11/06 06:58:17;;;;;;;1.20;0.77;;;;;;;6.97;100.00;98550.16;6117688;23;20610;-80
2023/11/06 07:00:46;;;;;;;2.63;1.27;;;;;;;7.08;100.00;98546.75;6094639;23;20167;-80
2023/11/06 07:03:23;;;;;;;3.13;1.03;;;;;;;7.16;100.00;98550.16;6142068;23;20243;-80
2023/11/06 07:05:55;;;;;;;1.23;0.80;;;;;;;7.25;100.00;98554.94;6118007;23;20186;-80
2023/11/06 07:08:32;;;;;;;1.80;0.90;;;;;;;7.39;100.00;98555.59;6115597;23;20167;-79
2023/11/06 07:11:01;;;;;;;1.13;0.90;;;;;;;7.55;100.00;98565.63;6139421;23;20186;-79
2023/11/06 07:13:31;;;;;;;1.63;0.80;;;;;;;7.65;100.00;98563.22;6115699;23;20191;-81
2023/11/06 07:16:07;;;;;;;2.53;1.00;;;;;;;7.78;100.00;98578.25;6093763;23;20190;-80
2023/11/06 07:18:40;;;;;;;1.70;1.10;;;;;;;7.96;100.00;98579.00;6143205;23;20159;-80
2023/11/06 07:21:08;;;;;;;2.10;1.80;;;;;;;8.14;100.00;98591.44;6142213;23;20179;-80
2023/11/06 07:23:42;;;;;;;4.30;2.90;;;;;;;8.27;100.00;98585.06;6116231;23;20163;-80
2023/11/06 07:26:11;;;;;;;4.93;3.23;;;;;;;8.46;100.00;98581.28;6093274;23;20171;-80
2023/11/06 07:28:40;;;;;;;5.03;2.60;;;;;;;8.70;100.00;98585.59;6143114;23;20198;-81
2023/11/06 07:31:12;;;;;;;4.87;2.60;;;;;;;9.01;100.00;98583.59;6118398;23;20223;-80
2023/11/06 07:33:44;;;;;;;6.63;4.10;;;;;;;9.34;100.00;98594.44;6118663;23;20160;-80
2023/11/06 07:36:20;;;;;;;8.33;4.77;;;;;;;9.69;100.00;98591.69;6097912;23;20187;-80
2023/11/06 07:38:48;;;;;;;5.20;3.77;;;;;;;10.00;100.00;98598.38;6142981;23;20160;-80
2023/11/06 07:41:18;;;;;;;5.27;3.80;;;;;;;10.27;100.00;98601.28;6143443;23;20195;-80
2023/11/06 07:43:49;;;;;;;6.13;3.70;;;;;;;10.44;100.00;98600.25;6119803;23;20167;-80
2023/11/06 07:46:21;;;;;;;4.83;3.97;;;;;;;10.63;100.00;98595.47;6121077;23;20233;-80
2023/11/06 07:48:54;;;;;;;4.30;3.37;;;;;;;10.80;100.00;98601.59;6145726;23;20160;-79
2023/11/06 07:51:26;;;;;;;4.63;2.83;;;;;;;10.93;100.00;98605.81;6119806;23;20630;-80
2023/11/06 07:54:01;;;;;;;4.00;2.30;;;;;;;11.02;100.00;98610.50;6120787;23;20223;-79
2023/11/06 07:56:30;;;;;;;2.63;1.60;;;;;;;11.05;100.00;98614.56;6115751;23;20274;-79
2023/11/06 07:59:03;;;;;;;1.80;1.63;;;;;;;11.09;100.00;98609.53;6115834;23;20168;-79
2023/11/06 08:02:10;;;;;;;2.13;1.70;;;;;;;11.19;100.00;98613.16;6140367;23;20195;-82
2023/11/06 08:08:25;;;;;;;2.37;2.00;;;;;;;11.43;100.00;98614.53;6122168;23;20195;-80
2023/11/06 08:11:02;;;;;;;2.33;1.70;;;;;;;11.59;100.00;98617.41;6125579;23;20172;-81
2023/11/06 08:14:08;;;;;;;2.87;2.00;;;;;;;11.74;100.00;98629.16;6000912;24;20204;-80
2023/11/06 08:21:15;;;;;;;2.73;1.23;;;;;;;11.99;100.00;98627.81;5980846;24;20171;-81
2023/11/06 08:24:17;;;;;;;1.37;1.20;;;;;;;12.02;100.00;98636.16;5979990;24;20192;-82
2023/11/06 08:28:29;;;;;;;2.60;1.00;;;;;;;12.16;100.00;98633.88;5894131;24;20190;-80
2023/11/06 08:31:02;;;;;;;1.33;0.90;;;;;;;12.11;100.00;98637.34;5893613;24;20199;-80
2023/11/06 08:33:54;;;;;;;3.10;0.90;;;;;;;12.16;100.00;98640.06;5870434;24;20185;-80
2023/11/06 08:36:26;;;;;;;1.97;0.90;;;;;;;12.35;100.00;98632.47;5785556;24;20203;-80
2023/11/06 08:39:05;;;;;;;1.77;0.70;;;;;;;12.61;100.00;98636.97;5894656;24;20237;-81
2023/11/06 08:41:40;;;;;;;0.80;0.50;;;;;;;12.97;100.00;98634.56;5876182;24;20192;-81
2023/11/06 08:45:04;;;;;;;1.90;0.40;;;;;;;13.53;100.00;98630.34;5817324;24;20219;-80
2023/11/06 08:52:42;;;;;;;0.63;0.30;;;;;;;14.35;100.00;98629.47;5886698;24;20217;-81
2023/11/06 09:08:53;;;;;;;0.60;0.30;;;;;;;16.07;95.72;98656.16;5833460;24;20572;-83
2023/11/06 09:11:24;;;;;;;0.67;0.30;;;;;;;16.34;92.94;98661.09;5818412;24;20272;-84
2023/11/06 09:13:53;;;;;;;2.00;0.30;;;;;;;16.51;89.18;98656.97;5830275;24;20202;-85
2023/11/06 09:16:24;;;;;;;0.70;0.43;;;;;;;16.68;88.77;98664.69;5845197;24;20265;-84
2023/11/06 09:18:53;;;;;;;0.83;0.40;;;;;;;16.94;86.35;98657.16;5857365;24;20196;-87
2023/11/06 09:21:21;;;;;;;0.60;0.30;;;;;;;17.13;84.50;98658.06;5907992;24;20175;-85
2023/11/06 09:23:49;;;;;;;0.70;0.40;;;;;;;17.24;81.98;98662.31;5981710;24;20195;-87
2023/11/06 09:26:21;;;;;;;0.60;0.40;;;;;;;17.30;81.01;98666.59;5967356;23;20254;-86
2023/11/06 09:28:49;;;;;;;1.30;0.30;;;;;;;17.55;80.25;98660.88;6009266;23;20672;-85
2023/11/06 09:31:20;;;;;;;0.50;0.27;;;;;;;17.74;79.98;98657.44;6009875;23;20175;-85
2023/11/06 09:33:54;;;;;;;0.87;0.30;;;;;;;17.87;77.71;98662.97;5986812;23;20171;-86
2023/11/06 09:36:24;;;;;;;1.53;0.50;;;;;;;17.58;75.14;98659.50;6017019;23;20195;-85
2023/11/06 09:38:59;;;;;;;1.23;0.40;;;;;;;17.87;75.54;98659.47;6103015;23;20211;-85
2023/11/06 09:41:29;;;;;;;0.50;0.30;;;;;;;18.10;74.82;98666.75;6126404;23;20201;-85
2023/11/06 09:44:00;;;;;;;1.07;0.40;;;;;;;17.97;72.91;98659.31;6103782;23;20168;-86
2023/11/06 09:46:30;;;;;;;1.23;0.50;;;;;;;17.84;73.94;98670.88;6126622;23;20272;-86
2023/11/06 09:49:16;;;;;;;1.30;0.40;;;;;;;17.79;76.14;98668.22;6101687;23;20201;-86
2023/11/06 09:51:52;;;;;;;0.53;0.30;;;;;;;17.81;75.29;98666.03;6080709;23;20188;-85
2023/11/06 09:54:20;;;;;;;1.10;0.40;;;;;;;17.76;74.75;98677.75;6101731;23;20223;-85
2023/11/06 09:56:53;;;;;;;0.77;0.30;;;;;;;17.60;75.09;98673.59;6102545;23;20190;-85
2023/11/06 09:59:23;;;;;;;0.70;0.30;;;;;;;17.59;72.44;98672.78;6078442;23;20184;-85
2023/11/06 10:01:53;;;;;;;0.83;0.30;;;;;;;17.59;72.62;98677.38;6101516;23;20190;-86
2023/11/06 10:04:21;;;;;;;0.97;0.40;;;;;;;17.91;72.07;98671.34;6101856;23;20164;-86
2023/11/06 10:06:51;;;;;;;2.13;0.50;;;;;;;18.08;70.57;98665.41;6077315;23;20243;-86
2023/11/06 10:09:21;;;;;;;1.53;0.50;;;;;;;17.88;70.26;98669.19;6124511;23;20203;-85
2023/11/06 10:11:58;;;;;;;0.47;0.40;;;;;;;17.83;69.25;98661.94;6126979;23;20153;-85
2023/11/06 10:14:40;;;;;;;0.60;0.30;;;;;;;17.82;68.45;98665.75;6103086;23;20168;-85
2023/11/06 10:17:09;;;;;;;0.70;0.30;;;;;;;17.82;70.13;98663.06;6101775;23;20319;-85
2023/11/06 10:19:41;;;;;;;0.67;0.30;;;;;;;17.76;68.54;98658.78;6102816;23;20168;-84
2023/11/06 10:22:14;;;;;;;0.87;0.30;;;;;;;17.75;69.62;98675.31;6077312;23;20176;-85
2023/11/06 10:24:52;;;;;;;1.00;0.40;;;;;;;17.65;71.28;98675.44;6102967;23;20151;-86
2023/11/06 10:27:29;;;;;;;0.73;0.30;;;;;;;17.53;70.52;98664.97;6127350;23;20166;-85
2023/11/06 10:30:04;;;;;;;0.80;0.30;;;;;;;17.47;69.82;98672.34;6101115;23;20173;-88
2023/11/06 10:32:33;;;;;;;1.97;0.50;;;;;;;17.42;69.08;98661.56;6077763;23;20484;-84
2023/11/06 10:35:14;;;;;;;4.67;0.70;;;;;;;17.39;69.69;98662.16;6126736;23;20182;-85
2023/11/06 10:37:46;;;;;;;0.70;0.30;;;;;;;17.33;70.76;98662.47;6077378;23;20189;-85
2023/11/06 10:40:21;;;;;;;0.83;0.30;;;;;;;17.34;72.26;98669.50;6096376;23;20203;-86
2023/11/06 10:42:49;;;;;;;1.23;0.50;;;;;;;17.33;70.00;98662.47;6096219;23;20175;-85
2023/11/06 10:45:18;;;;;;;1.70;0.50;;;;;;;17.29;69.08;98659.56;6095578;23;20169;-87
2023/11/06 10:47:47;;;;;;;0.40;0.30;;;;;;;17.29;68.56;98656.84;6097096;23;20224;-85
2023/11/06 10:50:19;;;;;;;0.80;0.30;;;;;;;17.28;68.95;98660.63;6071990;23;20230;-85
2023/11/06 10:52:51;;;;;;;0.50;0.20;;;;;;;17.26;70.01;98668.25;6097158;23;20178;-85
2023/11/06 10:55:25;;;;;;;0.97;0.47;;;;;;;17.28;74.25;98674.16;6095736;23;20609;-86
2023/11/06 10:58:07;;;;;;;0.90;0.57;;;;;;;17.31;76.24;98664.69;6095856;23;20662;-85
2023/11/06 11:00:40;;;;;;;1.43;0.47;;;;;;;17.40;76.55;98665.66;6095584;23;20178;-87
2023/11/06 11:03:10;;;;;;;1.47;0.60;;;;;;;17.48;78.72;98670.44;6096412;23;20237;-86
2023/11/06 11:05:39;;;;;;;0.90;0.40;;;;;;;17.48;75.17;98665.84;6095978;23;20181;-87
2023/11/06 11:08:08;;;;;;;0.60;0.40;;;;;;;17.52;73.42;98664.16;6095965;23;20198;-85
2023/11/06 11:10:38;;;;;;;0.63;0.40;;;;;;;17.52;71.41;98664.16;6095578;23;20171;-85
2023/11/06 11:13:06;;;;;;;0.50;0.33;;;;;;;17.54;71.34;98661.97;6097195;23;20171;-84
2023/11/06 11:15:35;;;;;;;1.23;0.40;;;;;;;17.58;72.75;98664.94;6048815;23;20176;-85
2023/11/06 11:18:13;;;;;;;0.70;0.30;;;;;;;17.63;74.90;98670.31;6095840;23;20208;-85
2023/11/06 11:20:51;;;;;;;0.77;0.43;;;;;;;17.71;73.93;98669.69;6095714;23;20166;-85
2023/11/06 11:23:37;;;;;;;2.40;0.50;;;;;;;17.74;73.71;98682.63;6097499;23;20621;-86
2023/11/06 11:26:11;;;;;;;2.20;0.50;;;;;;;17.81;73.75;98676.88;6095507;23;20182;-85
2023/11/06 11:28:58;;;;;;;1.63;0.50;;;;;;;17.88;72.31;98678.13;6096097;23;20165;-88
2023/11/06 11:31:34;;;;;;;2.13;0.40;;;;;;;17.77;70.19;98673.94;6096784;23;20157;-85
2023/11/06 11:34:03;;;;;;;0.73;0.60;;;;;;;17.73;70.35;98674.81;6095897;23;20164;-85
2023/11/06 11:36:37;;;;;;;0.57;0.40;;;;;;;17.71;71.82;98679.69;6096535;23;20242;-85
2023/11/06 11:39:14;;;;;;;1.63;0.40;;;;;;;17.68;71.24;98675.69;6095869;23;20162;-85
2023/11/06 11:42:00;;;;;;;1.37;0.60;;;;;;;17.87;70.29;98681.16;6099824;23;20204;-84
2023/11/06 11:44:27;;;;;;;0.33;0.33;;;;;;;17.95;69.45;98684.00;6126173;23;20209;-84
2023/11/06 11:47:03;;;;;;;0.80;0.40;;;;;;;17.95;69.22;98675.88;6125936;23;20193;-85
2023/11/06 11:49:47;;;;;;;0.43;0.40;;;;;;;17.98;68.51;98679.91;6077613;23;20181;-85
2023/11/06 11:52:28;;;;;;;1.53;0.40;;;;;;;17.95;69.02;98680.50;6126131;23;20225;-85
2023/11/06 11:54:55;;;;;;;0.90;0.40;;;;;;;17.92;68.32;98678.34;6099895;23;20196;-85
2023/11/06 11:57:35;;;;;;;1.83;0.40;;;;;;;17.92;68.84;98683.75;6075976;23;20194;-85
2023/11/06 12:00:03;;;;;;;0.50;0.30;;;;;;;18.00;68.74;98672.31;6077416;23;20173;-86
2023/11/06 12:02:33;;;;;;;0.30;0.30;;;;;;;18.05;68.28;98674.94;6100064;23;20175;-85
2023/11/06 12:05:12;;;;;;;1.20;0.30;;;;;;;18.11;69.54;98681.91;6100424;23;20162;-87
2023/11/06 12:07:42;;;;;;;0.40;0.30;;;;;;;18.09;68.49;98678.69;6099511;23;20282;-84
2023/11/06 12:10:15;;;;;;;0.90;0.30;;;;;;;18.13;68.06;98684.31;6100476;23;20170;-88
2023/11/06 12:12:46;;;;;;;0.50;0.37;;;;;;;18.22;67.69;98685.28;6076180;23;20257;-87
2023/11/06 12:15:16;;;;;;;0.73;0.40;;;;;;;18.25;67.55;98681.97;6076542;23;20192;-85
2023/11/06 12:17:44;;;;;;;0.40;0.40;;;;;;;18.21;67.35;98681.75;6099326;23;20198;-86
2023/11/06 12:20:13;;;;;;;0.40;0.40;;;;;;;18.16;67.05;98676.41;6076446;23;20179;-85
2023/11/06 12:22:53;;;;;;;0.50;0.40;;;;;;;17.99;67.30;98676.09;6125375;23;20855;-84
2023/11/06 12:25:33;;;;;;;0.90;0.53;;;;;;;18.09;67.76;98678.69;6101018;23;20213;-85
2023/11/06 12:28:14;;;;;;;0.80;0.40;;;;;;;18.14;68.63;98673.19;6100380;23;20153;-84
2023/11/06 12:30:46;;;;;;;0.40;0.40;;;;;;;18.27;69.00;98671.66;6100088;23;20173;-86
2023/11/06 12:33:19;;;;;;;0.83;0.37;;;;;;;18.37;68.73;98680.47;6099260;23;20174;-86